sensor_id;sensor_type;location;lat;lon;timestamp;temperature;humidity
6956;DHT22;50345;51.136;16.886;2023-04-24T00:02:04;13.40;99.90
6956;DHT22;50345;51.136;16.886;2023-04-24T00:04:29;13.40;99.90
6956;DHT22;50345;51.136;16.886;2023-04-24T00:06:57;13.40;99.90
6956;DHT22;50345;51.136;16.886;2023-04-24T00:09:25;13.40;99.90
6956;DHT22;50345;51.136;16.886;2023-04-24T00:11:51;13.40;99.90
6956;DHT22;50345;51.136;16.886;2023-04-24T00:14:17;13.40;99.90
6956;DHT22;50345;51.136;16.886;2023-04-24T00:16:42;13.40;99.90
6956;DHT22;50345;51.136;16.886;2023-04-24T00:19:08;13.50;99.90
6956;DHT22;50345;51.136;16.886;2023-04-24T00:21:34;13.40;99.90
6956;DHT22;50345;51.136;16.886;2023-04-24T00:24:00;13.40;99.90
6956;DHT22;50345;51.136;16.886;2023-04-24T00:26:25;13.40;99.90
6956;DHT22;50345;51.136;16.886;2023-04-24T00:28:51;13.40;99.90
6956;DHT22;50345;51.136;16.886;2023-04-24T00:31:17;13.40;99.90
6956;DHT22;50345;51.136;16.886;2023-04-24T00:33:42;13.40;99.90
6956;DHT22;50345;51.136;16.886;2023-04-24T00:36:08;13.40;99.90
6956;DHT22;50345;51.136;16.886;2023-04-24T00:38:33;13.40;99.90
6956;DHT22;50345;51.136;16.886;2023-04-24T00:40:59;13.40;99.90
6956;DHT22;50345;51.136;16.886;2023-04-24T00:43:25;13.40;99.90
6956;DHT22;50345;51.136;16.886;2023-04-24T00:45:50;13.40;99.90
6956;DHT22;50345;51.136;16.886;2023-04-24T00:48:16;13.40;99.90
6956;DHT22;50345;51.136;16.886;2023-04-24T00:50:42;13.40;99.90
6956;DHT22;50345;51.136;16.886;2023-04-24T00:53:07;13.40;99.90
6956;DHT22;50345;51.136;16.886;2023-04-24T00:55:33;13.40;99.90
6956;DHT22;50345;51.136;16.886;2023-04-24T00:57:59;13.40;99.90
6956;DHT22;50345;51.136;16.886;2023-04-24T01:00:25;13.40;99.90
6956;DHT22;50345;51.136;16.886;2023-04-24T01:02:51;13.30;99.90
6956;DHT22;50345;51.136;16.886;2023-04-24T01:05:17;13.40;99.90
6956;DHT22;50345;51.136;16.886;2023-04-24T01:07:45;13.30;99.90
6956;DHT22;50345;51.136;16.886;2023-04-24T01:10:13;13.40;99.90
6956;DHT22;50345;51.136;16.886;2023-04-24T01:12:39;13.40;99.90
6956;DHT22;50345;51.136;16.886;2023-04-24T01:15:06;13.30;99.90
6956;DHT22;50345;51.136;16.886;2023-04-24T01:17:32;13.30;99.90
6956;DHT22;50345;51.136;16.886;2023-04-24T01:19:58;13.30;99.90
6956;DHT22;50345;51.136;16.886;2023-04-24T01:22:25;13.20;99.90
6956;DHT22;50345;51.136;16.886;2023-04-24T01:24:51;13.20;99.90
6956;DHT22;50345;51.136;16.886;2023-04-24T01:27:17;13.20;99.90
6956;DHT22;50345;51.136;16.886;2023-04-24T01:29:43;13.20;99.90
6956;DHT22;50345;51.136;16.886;2023-04-24T01:32:09;13.20;99.90
6956;DHT22;50345;51.136;16.886;2023-04-24T01:34:34;13.10;99.90
6956;DHT22;50345;51.136;16.886;2023-04-24T01:37:00;13.10;99.90
6956;DHT22;50345;51.136;16.886;2023-04-24T01:39:26;13.10;99.90
6956;DHT22;50345;51.136;16.886;2023-04-24T01:41:54;13.10;99.90
6956;DHT22;50345;51.136;16.886;2023-04-24T01:44:20;13.10;99.90
6956;DHT22;50345;51.136;16.886;2023-04-24T01:46:46;13.10;99.90
6956;DHT22;50345;51.136;16.886;2023-04-24T01:49:12;13.10;99.90
6956;DHT22;50345;51.136;16.886;2023-04-24T01:51:38;13.10;99.90
6956;DHT22;50345;51.136;16.886;2023-04-24T01:54:04;13.10;99.90
6956;DHT22;50345;51.136;16.886;2023-04-24T01:56:33;13.10;99.90
6956;DHT22;50345;51.136;16.886;2023-04-24T01:58:59;13.10;99.90
6956;DHT22;50345;51.136;16.886;2023-04-24T02:01:25;13.10;99.90
6956;DHT22;50345;51.136;16.886;2023-04-24T02:03:51;13.20;99.90
6956;DHT22;50345;51.136;16.886;2023-04-24T02:06:17;13.20;99.90
6956;DHT22;50345;51.136;16.886;2023-04-24T02:08:42;13.20;99.90
6956;DHT22;50345;51.136;16.886;2023-04-24T02:11:11;13.20;99.90
6956;DHT22;50345;51.136;16.886;2023-04-24T02:13:36;13.20;99.90
6956;DHT22;50345;51.136;16.886;2023-04-24T02:16:02;13.20;99.90
6956;DHT22;50345;51.136;16.886;2023-04-24T02:18:28;13.10;99.90
6956;DHT22;50345;51.136;16.886;2023-04-24T02:20:53;13.10;99.90
6956;DHT22;50345;51.136;16.886;2023-04-24T02:23:19;13.10;99.90
6956;DHT22;50345;51.136;16.886;2023-04-24T02:25:44;13.10;99.90
6956;DHT22;50345;51.136;16.886;2023-04-24T02:28:11;13.10;99.90
6956;DHT22;50345;51.136;16.886;2023-04-24T02:30:36;13.10;99.90
6956;DHT22;50345;51.136;16.886;2023-04-24T02:33:02;13.10;99.90
6956;DHT22;50345;51.136;16.886;2023-04-24T02:35:28;13.00;99.90
6956;DHT22;50345;51.136;16.886;2023-04-24T02:37:54;13.00;99.90
6956;DHT22;50345;51.136;16.886;2023-04-24T02:40:19;13.00;99.90
6956;DHT22;50345;51.136;16.886;2023-04-24T02:42:45;13.00;99.90
6956;DHT22;50345;51.136;16.886;2023-04-24T02:45:11;13.00;99.90
6956;DHT22;50345;51.136;16.886;2023-04-24T02:47:36;13.00;99.90
6956;DHT22;50345;51.136;16.886;2023-04-24T02:50:03;13.00;99.90
6956;DHT22;50345;51.136;16.886;2023-04-24T02:52:28;13.10;99.90
6956;DHT22;50345;51.136;16.886;2023-04-24T02:54:54;13.10;99.90
6956;DHT22;50345;51.136;16.886;2023-04-24T02:57:19;13.10;99.90
6956;DHT22;50345;51.136;16.886;2023-04-24T02:59:45;13.10;99.90
6956;DHT22;50345;51.136;16.886;2023-04-24T03:02:10;13.10;99.90
6956;DHT22;50345;51.136;16.886;2023-04-24T03:04:36;13.10;99.90
6956;DHT22;50345;51.136;16.886;2023-04-24T03:07:02;13.00;99.90
6956;DHT22;50345;51.136;16.886;2023-04-24T03:09:27;13.00;99.90
6956;DHT22;50345;51.136;16.886;2023-04-24T03:11:53;13.00;99.90
6956;DHT22;50345;51.136;16.886;2023-04-24T03:14:18;13.00;99.90
6956;DHT22;50345;51.136;16.886;2023-04-24T03:16:44;13.10;99.90
6956;DHT22;50345;51.136;16.886;2023-04-24T03:19:10;13.10;99.90
6956;DHT22;50345;51.136;16.886;2023-04-24T03:21:35;13.10;99.90
6956;DHT22;50345;51.136;16.886;2023-04-24T03:24:06;13.10;99.90
6956;DHT22;50345;51.136;16.886;2023-04-24T03:26:32;13.10;99.90
6956;DHT22;50345;51.136;16.886;2023-04-24T03:28:57;13.10;99.90
6956;DHT22;50345;51.136;16.886;2023-04-24T03:31:23;13.10;99.90
6956;DHT22;50345;51.136;16.886;2023-04-24T03:33:48;13.10;99.90
6956;DHT22;50345;51.136;16.886;2023-04-24T03:36:14;13.10;99.90
6956;DHT22;50345;51.136;16.886;2023-04-24T03:38:40;13.10;99.90
6956;DHT22;50345;51.136;16.886;2023-04-24T03:41:05;13.00;99.90
6956;DHT22;50345;51.136;16.886;2023-04-24T03:43:31;13.00;99.90
6956;DHT22;50345;51.136;16.886;2023-04-24T03:45:58;13.10;99.90
6956;DHT22;50345;51.136;16.886;2023-04-24T03:48:24;13.10;99.90
6956;DHT22;50345;51.136;16.886;2023-04-24T03:50:50;13.10;99.90
6956;DHT22;50345;51.136;16.886;2023-04-24T03:53:15;13.10;99.90
6956;DHT22;50345;51.136;16.886;2023-04-24T03:55:41;13.10;99.90
6956;DHT22;50345;51.136;16.886;2023-04-24T03:58:06;13.10;99.90
6956;DHT22;50345;51.136;16.886;2023-04-24T04:00:32;13.00;99.90
6956;DHT22;50345;51.136;16.886;2023-04-24T04:02:58;13.00;99.90
6956;DHT22;50345;51.136;16.886;2023-04-24T04:05:24;12.90;99.90
6956;DHT22;50345;51.136;16.886;2023-04-24T04:07:49;12.90;99.90
6956;DHT22;50345;51.136;16.886;2023-04-24T04:10:15;12.90;99.90
6956;DHT22;50345;51.136;16.886;2023-04-24T04:12:42;12.80;99.90
6956;DHT22;50345;51.136;16.886;2023-04-24T04:15:08;12.80;99.90
6956;DHT22;50345;51.136;16.886;2023-04-24T04:17:33;12.80;99.90
6956;DHT22;50345;51.136;16.886;2023-04-24T04:19:59;12.80;99.90
6956;DHT22;50345;51.136;16.886;2023-04-24T04:22:25;12.80;99.90
6956;DHT22;50345;51.136;16.886;2023-04-24T04:24:51;12.80;99.90
6956;DHT22;50345;51.136;16.886;2023-04-24T04:27:16;12.90;99.90
6956;DHT22;50345;51.136;16.886;2023-04-24T04:29:44;12.90;99.90
6956;DHT22;50345;51.136;16.886;2023-04-24T04:32:10;12.90;99.90
6956;DHT22;50345;51.136;16.886;2023-04-24T04:34:35;13.00;99.90
6956;DHT22;50345;51.136;16.886;2023-04-24T04:37:03;13.10;99.90
6956;DHT22;50345;51.136;16.886;2023-04-24T04:39:29;13.20;99.90
6956;DHT22;50345;51.136;16.886;2023-04-24T04:41:55;13.30;99.90
6956;DHT22;50345;51.136;16.886;2023-04-24T04:44:21;13.50;99.90
6956;DHT22;50345;51.136;16.886;2023-04-24T04:46:47;13.60;99.90
6956;DHT22;50345;51.136;16.886;2023-04-24T04:49:13;13.70;99.90
6956;DHT22;50345;51.136;16.886;2023-04-24T04:51:41;13.80;99.90
6956;DHT22;50345;51.136;16.886;2023-04-24T04:54:07;13.90;99.90
6956;DHT22;50345;51.136;16.886;2023-04-24T04:56:33;14.10;99.90
6956;DHT22;50345;51.136;16.886;2023-04-24T04:58:58;14.20;99.90
6956;DHT22;50345;51.136;16.886;2023-04-24T05:01:24;14.30;99.90
6956;DHT22;50345;51.136;16.886;2023-04-24T05:03:52;14.30;99.90
6956;DHT22;50345;51.136;16.886;2023-04-24T05:06:18;14.40;99.90
6956;DHT22;50345;51.136;16.886;2023-04-24T05:08:44;14.40;99.90
6956;DHT22;50345;51.136;16.886;2023-04-24T05:11:10;14.50;99.90
6956;DHT22;50345;51.136;16.886;2023-04-24T05:13:35;14.50;99.90
6956;DHT22;50345;51.136;16.886;2023-04-24T05:16:01;14.60;99.90
6956;DHT22;50345;51.136;16.886;2023-04-24T05:18:26;14.60;99.90
6956;DHT22;50345;51.136;16.886;2023-04-24T05:20:52;14.60;99.90
6956;DHT22;50345;51.136;16.886;2023-04-24T05:23:17;14.60;99.90
6956;DHT22;50345;51.136;16.886;2023-04-24T05:25:43;14.60;99.90
6956;DHT22;50345;51.136;16.886;2023-04-24T05:28:08;14.50;99.90
6956;DHT22;50345;51.136;16.886;2023-04-24T05:30:34;14.60;99.90
6956;DHT22;50345;51.136;16.886;2023-04-24T05:32:59;14.60;99.90
6956;DHT22;50345;51.136;16.886;2023-04-24T05:35:25;14.70;99.90
6956;DHT22;50345;51.136;16.886;2023-04-24T05:37:50;14.70;99.90
6956;DHT22;50345;51.136;16.886;2023-04-24T05:40:16;14.80;99.90
6956;DHT22;50345;51.136;16.886;2023-04-24T05:42:42;14.90;99.90
6956;DHT22;50345;51.136;16.886;2023-04-24T05:45:08;14.90;99.90
6956;DHT22;50345;51.136;16.886;2023-04-24T05:47:34;14.90;99.90
6956;DHT22;50345;51.136;16.886;2023-04-24T05:50:00;15.00;99.90
6956;DHT22;50345;51.136;16.886;2023-04-24T05:52:26;15.00;99.90
6956;DHT22;50345;51.136;16.886;2023-04-24T05:54:51;15.10;99.90
6956;DHT22;50345;51.136;16.886;2023-04-24T05:57:17;15.10;99.90
6956;DHT22;50345;51.136;16.886;2023-04-24T05:59:42;15.10;99.90
6956;DHT22;50345;51.136;16.886;2023-04-24T06:02:08;15.10;99.90
6956;DHT22;50345;51.136;16.886;2023-04-24T06:04:33;15.10;99.90
6956;DHT22;50345;51.136;16.886;2023-04-24T06:06:59;15.10;99.90
6956;DHT22;50345;51.136;16.886;2023-04-24T06:09:25;15.10;99.90
6956;DHT22;50345;51.136;16.886;2023-04-24T06:11:51;15.10;99.90
6956;DHT22;50345;51.136;16.886;2023-04-24T06:14:18;15.20;99.90
6956;DHT22;50345;51.136;16.886;2023-04-24T06:16:44;15.20;99.90
6956;DHT22;50345;51.136;16.886;2023-04-24T06:19:10;15.20;99.90
6956;DHT22;50345;51.136;16.886;2023-04-24T06:21:35;15.30;99.90
6956;DHT22;50345;51.136;16.886;2023-04-24T06:24:01;15.30;99.90
6956;DHT22;50345;51.136;16.886;2023-04-24T06:26:27;15.30;99.90
6956;DHT22;50345;51.136;16.886;2023-04-24T06:28:53;15.40;99.90
6956;DHT22;50345;51.136;16.886;2023-04-24T06:31:21;15.40;99.90
6956;DHT22;50345;51.136;16.886;2023-04-24T06:33:48;15.40;99.90
6956;DHT22;50345;51.136;16.886;2023-04-24T06:36:15;15.50;99.90
6956;DHT22;50345;51.136;16.886;2023-04-24T06:38:41;15.50;99.90
6956;DHT22;50345;51.136;16.886;2023-04-24T06:41:06;15.60;99.90
6956;DHT22;50345;51.136;16.886;2023-04-24T06:43:32;15.70;99.90
6956;DHT22;50345;51.136;16.886;2023-04-24T06:45:58;15.80;99.90
6956;DHT22;50345;51.136;16.886;2023-04-24T06:48:24;16.00;99.90
6956;DHT22;50345;51.136;16.886;2023-04-24T06:50:51;16.40;99.90
6956;DHT22;50345;51.136;16.886;2023-04-24T06:53:17;16.50;99.90
6956;DHT22;50345;51.136;16.886;2023-04-24T06:55:42;16.70;99.90
6956;DHT22;50345;51.136;16.886;2023-04-24T06:58:10;16.80;99.90
6956;DHT22;50345;51.136;16.886;2023-04-24T07:00:36;17.00;99.90
6956;DHT22;50345;51.136;16.886;2023-04-24T07:03:01;17.00;99.90
6956;DHT22;50345;51.136;16.886;2023-04-24T07:05:27;17.10;99.90
6956;DHT22;50345;51.136;16.886;2023-04-24T07:07:53;17.20;99.90
6956;DHT22;50345;51.136;16.886;2023-04-24T07:10:19;17.20;99.90
6956;DHT22;50345;51.136;16.886;2023-04-24T07:12:45;17.40;99.90
6956;DHT22;50345;51.136;16.886;2023-04-24T07:15:12;17.60;99.90
6956;DHT22;50345;51.136;16.886;2023-04-24T07:17:37;17.70;99.90
6956;DHT22;50345;51.136;16.886;2023-04-24T07:20:04;17.80;99.90
6956;DHT22;50345;51.136;16.886;2023-04-24T07:22:30;17.80;99.90
6956;DHT22;50345;51.136;16.886;2023-04-24T07:24:56;17.80;99.90
6956;DHT22;50345;51.136;16.886;2023-04-24T07:27:22;17.70;99.90
6956;DHT22;50345;51.136;16.886;2023-04-24T07:29:47;17.70;99.90
6956;DHT22;50345;51.136;16.886;2023-04-24T07:32:13;17.50;99.90
6956;DHT22;50345;51.136;16.886;2023-04-24T07:34:39;17.30;99.90
6956;DHT22;50345;51.136;16.886;2023-04-24T07:37:04;17.20;99.90
6956;DHT22;50345;51.136;16.886;2023-04-24T07:39:30;17.30;99.90
6956;DHT22;50345;51.136;16.886;2023-04-24T07:41:56;17.30;99.90
6956;DHT22;50345;51.136;16.886;2023-04-24T07:44:22;17.20;99.90
6956;DHT22;50345;51.136;16.886;2023-04-24T07:46:47;17.20;99.90
6956;DHT22;50345;51.136;16.886;2023-04-24T07:49:13;17.10;99.90
6956;DHT22;50345;51.136;16.886;2023-04-24T07:51:39;17.00;99.90
6956;DHT22;50345;51.136;16.886;2023-04-24T07:54:05;16.90;99.90
6956;DHT22;50345;51.136;16.886;2023-04-24T07:56:32;16.90;99.90
6956;DHT22;50345;51.136;16.886;2023-04-24T07:58:58;17.00;99.90
6956;DHT22;50345;51.136;16.886;2023-04-24T08:01:24;17.10;99.90
6956;DHT22;50345;51.136;16.886;2023-04-24T08:03:50;17.30;99.90
6956;DHT22;50345;51.136;16.886;2023-04-24T08:06:16;17.40;99.90
6956;DHT22;50345;51.136;16.886;2023-04-24T08:08:42;17.90;99.90
6956;DHT22;50345;51.136;16.886;2023-04-24T08:11:07;18.00;99.90
6956;DHT22;50345;51.136;16.886;2023-04-24T08:13:33;18.20;99.90
6956;DHT22;50345;51.136;16.886;2023-04-24T08:15:58;18.30;99.90
6956;DHT22;50345;51.136;16.886;2023-04-24T08:18:24;18.30;99.90
6956;DHT22;50345;51.136;16.886;2023-04-24T08:20:50;18.30;99.90
6956;DHT22;50345;51.136;16.886;2023-04-24T08:23:16;18.10;99.90
6956;DHT22;50345;51.136;16.886;2023-04-24T08:25:41;18.00;99.90
6956;DHT22;50345;51.136;16.886;2023-04-24T08:28:08;17.80;99.90
6956;DHT22;50345;51.136;16.886;2023-04-24T08:30:34;17.60;99.90
6956;DHT22;50345;51.136;16.886;2023-04-24T08:33:00;17.50;99.90
6956;DHT22;50345;51.136;16.886;2023-04-24T08:35:25;17.40;99.90
6956;DHT22;50345;51.136;16.886;2023-04-24T08:37:52;17.40;99.90
6956;DHT22;50345;51.136;16.886;2023-04-24T08:40:22;17.50;99.90
6956;DHT22;50345;51.136;16.886;2023-04-24T08:42:54;17.50;99.90
6956;DHT22;50345;51.136;16.886;2023-04-24T08:45:21;17.60;99.90
6956;DHT22;50345;51.136;16.886;2023-04-24T08:47:47;17.60;99.90
6956;DHT22;50345;51.136;16.886;2023-04-24T08:50:14;17.80;99.90
6956;DHT22;50345;51.136;16.886;2023-04-24T08:52:42;17.90;99.90
6956;DHT22;50345;51.136;16.886;2023-04-24T08:55:08;17.90;99.90
6956;DHT22;50345;51.136;16.886;2023-04-24T08:57:34;17.90;99.90
6956;DHT22;50345;51.136;16.886;2023-04-24T09:00:01;17.80;99.90
6956;DHT22;50345;51.136;16.886;2023-04-24T09:02:27;17.80;99.90
6956;DHT22;50345;51.136;16.886;2023-04-24T09:04:55;17.80;99.90
6956;DHT22;50345;51.136;16.886;2023-04-24T09:07:24;17.70;99.90
6956;DHT22;50345;51.136;16.886;2023-04-24T09:09:51;17.60;99.90
6956;DHT22;50345;51.136;16.886;2023-04-24T09:12:18;17.50;99.90
6956;DHT22;50345;51.136;16.886;2023-04-24T09:14:45;17.40;99.90
6956;DHT22;50345;51.136;16.886;2023-04-24T09:17:11;17.40;99.90
6956;DHT22;50345;51.136;16.886;2023-04-24T09:19:37;17.40;99.90
6956;DHT22;50345;51.136;16.886;2023-04-24T09:22:07;17.40;99.90
6956;DHT22;50345;51.136;16.886;2023-04-24T09:24:34;17.50;99.90
6956;DHT22;50345;51.136;16.886;2023-04-24T09:27:00;17.80;99.90
6956;DHT22;50345;51.136;16.886;2023-04-24T09:29:29;18.30;99.90
6956;DHT22;50345;51.136;16.886;2023-04-24T09:31:55;21.20;99.90
6956;DHT22;50345;51.136;16.886;2023-04-24T09:34:25;24.30;99.90
6956;DHT22;50345;51.136;16.886;2023-04-24T09:36:51;26.00;77.10
6956;DHT22;50345;51.136;16.886;2023-04-24T09:39:18;26.10;68.80
6956;DHT22;50345;51.136;16.886;2023-04-24T09:41:55;26.00;67.90
6956;DHT22;50345;51.136;16.886;2023-04-24T09:44:27;25.60;70.40
6956;DHT22;50345;51.136;16.886;2023-04-24T09:46:57;24.80;70.10
6956;DHT22;50345;51.136;16.886;2023-04-24T09:49:30;23.40;71.70
6956;DHT22;50345;51.136;16.886;2023-04-24T09:52:09;22.60;77.80
6956;DHT22;50345;51.136;16.886;2023-04-24T09:54:35;21.30;89.30
6956;DHT22;50345;51.136;16.886;2023-04-24T09:57:02;21.00;91.00
6956;DHT22;50345;51.136;16.886;2023-04-24T09:59:28;20.10;95.30
6956;DHT22;50345;51.136;16.886;2023-04-24T10:01:54;19.90;98.00
6956;DHT22;50345;51.136;16.886;2023-04-24T10:06:47;19.20;99.90
6956;DHT22;50345;51.136;16.886;2023-04-24T10:09:14;19.10;99.90
6956;DHT22;50345;51.136;16.886;2023-04-24T10:11:45;18.90;99.90
6956;DHT22;50345;51.136;16.886;2023-04-24T10:14:16;18.70;99.90
6956;DHT22;50345;51.136;16.886;2023-04-24T10:16:43;18.50;99.90
6956;DHT22;50345;51.136;16.886;2023-04-24T10:19:09;18.30;99.90
6956;DHT22;50345;51.136;16.886;2023-04-24T10:21:36;18.30;99.90
6956;DHT22;50345;51.136;16.886;2023-04-24T10:24:08;18.20;99.90
6956;DHT22;50345;51.136;16.886;2023-04-24T10:26:34;18.10;99.90
6956;DHT22;50345;51.136;16.886;2023-04-24T10:29:01;18.00;99.90
6956;DHT22;50345;51.136;16.886;2023-04-24T10:31:28;17.80;99.90
6956;DHT22;50345;51.136;16.886;2023-04-24T10:33:56;17.70;99.90
6956;DHT22;50345;51.136;16.886;2023-04-24T10:36:24;17.70;99.90
6956;DHT22;50345;51.136;16.886;2023-04-24T10:38:52;17.70;99.90
6956;DHT22;50345;51.136;16.886;2023-04-24T10:41:19;17.60;99.90
6956;DHT22;50345;51.136;16.886;2023-04-24T10:43:48;17.70;99.90
6956;DHT22;50345;51.136;16.886;2023-04-24T10:46:20;17.80;99.90
6956;DHT22;50345;51.136;16.886;2023-04-24T10:48:53;17.80;99.90
6956;DHT22;50345;51.136;16.886;2023-04-24T10:51:25;17.80;99.90
6956;DHT22;50345;51.136;16.886;2023-04-24T10:59:46;18.50;99.90
6956;DHT22;50345;51.136;16.886;2023-04-24T11:02:16;18.60;99.90
6956;DHT22;50345;51.136;16.886;2023-04-24T11:04:43;18.80;99.90
6956;DHT22;50345;51.136;16.886;2023-04-24T11:07:09;18.80;99.90
6956;DHT22;50345;51.136;16.886;2023-04-24T11:09:35;18.90;99.90
6956;DHT22;50345;51.136;16.886;2023-04-24T11:12:07;18.90;99.90
6956;DHT22;50345;51.136;16.886;2023-04-24T11:17:34;18.50;99.90
6956;DHT22;50345;51.136;16.886;2023-04-24T11:20:07;18.30;99.90
6956;DHT22;50345;51.136;16.886;2023-04-24T11:22:35;18.00;99.90
6956;DHT22;50345;51.136;16.886;2023-04-24T11:25:02;17.60;99.90
6956;DHT22;50345;51.136;16.886;2023-04-24T11:27:39;17.50;99.90
6956;DHT22;50345;51.136;16.886;2023-04-24T11:30:05;17.40;99.90
6956;DHT22;50345;51.136;16.886;2023-04-24T11:32:42;17.50;99.90
6956;DHT22;50345;51.136;16.886;2023-04-24T11:35:21;17.50;99.90
6956;DHT22;50345;51.136;16.886;2023-04-24T11:37:52;17.60;99.90
6956;DHT22;50345;51.136;16.886;2023-04-24T11:40:20;17.60;99.90
6956;DHT22;50345;51.136;16.886;2023-04-24T11:42:50;17.70;99.90
6956;DHT22;50345;51.136;16.886;2023-04-24T11:45:17;17.70;99.90
6956;DHT22;50345;51.136;16.886;2023-04-24T11:47:44;17.80;99.90
6956;DHT22;50345;51.136;16.886;2023-04-24T11:50:15;17.90;99.90
6956;DHT22;50345;51.136;16.886;2023-04-24T11:52:42;18.00;99.90
6956;DHT22;50345;51.136;16.886;2023-04-24T11:55:29;18.30;99.90
6956;DHT22;50345;51.136;16.886;2023-04-24T11:57:57;18.80;99.90
6956;DHT22;50345;51.136;16.886;2023-04-24T12:03:07;19.70;99.90
6956;DHT22;50345;51.136;16.886;2023-04-24T12:05:33;20.60;99.90
6956;DHT22;50345;51.136;16.886;2023-04-24T12:07:59;20.70;99.90
6956;DHT22;50345;51.136;16.886;2023-04-24T12:10:27;20.80;99.90
6956;DHT22;50345;51.136;16.886;2023-04-24T12:12:54;20.70;99.90
6956;DHT22;50345;51.136;16.886;2023-04-24T12:15:21;20.60;99.90
6956;DHT22;50345;51.136;16.886;2023-04-24T12:17:47;20.30;99.90
6956;DHT22;50345;51.136;16.886;2023-04-24T12:20:13;20.10;99.90
6956;DHT22;50345;51.136;16.886;2023-04-24T12:22:56;19.80;99.90
6956;DHT22;50345;51.136;16.886;2023-04-24T12:25:32;19.30;99.90
6956;DHT22;50345;51.136;16.886;2023-04-24T12:30:40;18.50;99.90
6956;DHT22;50345;51.136;16.886;2023-04-24T12:33:07;18.20;99.90
6956;DHT22;50345;51.136;16.886;2023-04-24T12:35:33;18.00;99.90
6956;DHT22;50345;51.136;16.886;2023-04-24T12:38:06;18.00;99.90
6956;DHT22;50345;51.136;16.886;2023-04-24T12:40:33;18.10;99.90
6956;DHT22;50345;51.136;16.886;2023-04-24T12:42:58;18.00;99.90
6956;DHT22;50345;51.136;16.886;2023-04-24T12:45:24;17.80;99.90
6956;DHT22;50345;51.136;16.886;2023-04-24T12:47:50;17.60;99.90
6956;DHT22;50345;51.136;16.886;2023-04-24T12:50:16;17.50;99.90
6956;DHT22;50345;51.136;16.886;2023-04-24T12:52:44;17.30;99.90
6956;DHT22;50345;51.136;16.886;2023-04-24T12:55:10;17.10;99.90
6956;DHT22;50345;51.136;16.886;2023-04-24T12:57:37;17.10;99.90
6956;DHT22;50345;51.136;16.886;2023-04-24T13:00:03;17.00;99.90
6956;DHT22;50345;51.136;16.886;2023-04-24T13:02:30;16.90;99.90
6956;DHT22;50345;51.136;16.886;2023-04-24T13:04:57;16.70;99.90
6956;DHT22;50345;51.136;16.886;2023-04-24T13:07:22;16.30;99.90
6956;DHT22;50345;51.136;16.886;2023-04-24T13:09:49;16.20;99.90
6956;DHT22;50345;51.136;16.886;2023-04-24T13:12:15;16.10;99.90
6956;DHT22;50345;51.136;16.886;2023-04-24T13:14:41;16.00;99.90
6956;DHT22;50345;51.136;16.886;2023-04-24T13:17:07;15.80;99.90
6956;DHT22;50345;51.136;16.886;2023-04-24T13:19:38;15.80;99.90
6956;DHT22;50345;51.136;16.886;2023-04-24T13:22:04;15.70;99.90
6956;DHT22;50345;51.136;16.886;2023-04-24T13:24:30;15.60;99.90
6956;DHT22;50345;51.136;16.886;2023-04-24T13:26:56;15.50;99.90
6956;DHT22;50345;51.136;16.886;2023-04-24T13:29:22;15.40;99.90
6956;DHT22;50345;51.136;16.886;2023-04-24T13:31:50;15.40;99.90
6956;DHT22;50345;51.136;16.886;2023-04-24T13:34:16;15.40;99.90
6956;DHT22;50345;51.136;16.886;2023-04-24T13:36:42;15.30;99.90
6956;DHT22;50345;51.136;16.886;2023-04-24T13:39:08;15.20;99.90
6956;DHT22;50345;51.136;16.886;2023-04-24T13:41:34;15.10;99.90
6956;DHT22;50345;51.136;16.886;2023-04-24T13:44:00;15.10;99.90
6956;DHT22;50345;51.136;16.886;2023-04-24T13:46:26;15.10;99.90
6956;DHT22;50345;51.136;16.886;2023-04-24T13:48:51;15.00;99.90
6956;DHT22;50345;51.136;16.886;2023-04-24T13:51:17;15.00;99.90
6956;DHT22;50345;51.136;16.886;2023-04-24T13:53:43;15.00;99.90
6956;DHT22;50345;51.136;16.886;2023-04-24T13:56:09;15.00;99.90
6956;DHT22;50345;51.136;16.886;2023-04-24T13:58:35;14.90;99.90
6956;DHT22;50345;51.136;16.886;2023-04-24T14:01:02;14.90;99.90
6956;DHT22;50345;51.136;16.886;2023-04-24T14:03:28;14.90;99.90
6956;DHT22;50345;51.136;16.886;2023-04-24T14:05:54;14.80;99.90
6956;DHT22;50345;51.136;16.886;2023-04-24T14:08:20;14.80;99.90
6956;DHT22;50345;51.136;16.886;2023-04-24T14:10:45;14.70;99.90
6956;DHT22;50345;51.136;16.886;2023-04-24T14:13:11;14.70;99.90
6956;DHT22;50345;51.136;16.886;2023-04-24T14:15:37;14.70;99.90
6956;DHT22;50345;51.136;16.886;2023-04-24T14:18:03;14.60;99.90
6956;DHT22;50345;51.136;16.886;2023-04-24T14:20:29;14.60;99.90
6956;DHT22;50345;51.136;16.886;2023-04-24T14:22:54;14.60;99.90
6956;DHT22;50345;51.136;16.886;2023-04-24T14:25:20;14.60;99.90
6956;DHT22;50345;51.136;16.886;2023-04-24T14:27:47;14.60;99.90
6956;DHT22;50345;51.136;16.886;2023-04-24T14:30:13;14.60;99.90
6956;DHT22;50345;51.136;16.886;2023-04-24T14:32:39;14.60;99.90
6956;DHT22;50345;51.136;16.886;2023-04-24T14:35:06;14.60;99.90
6956;DHT22;50345;51.136;16.886;2023-04-24T14:37:32;14.50;99.90
6956;DHT22;50345;51.136;16.886;2023-04-24T14:39:57;14.50;99.90
6956;DHT22;50345;51.136;16.886;2023-04-24T14:42:23;14.50;99.90
6956;DHT22;50345;51.136;16.886;2023-04-24T14:44:49;14.50;99.90
6956;DHT22;50345;51.136;16.886;2023-04-24T14:47:14;14.40;99.90
6956;DHT22;50345;51.136;16.886;2023-04-24T14:49:42;14.40;99.90
6956;DHT22;50345;51.136;16.886;2023-04-24T14:52:09;14.30;99.90
6956;DHT22;50345;51.136;16.886;2023-04-24T14:54:35;14.30;99.90
6956;DHT22;50345;51.136;16.886;2023-04-24T14:57:00;14.30;99.90
6956;DHT22;50345;51.136;16.886;2023-04-24T14:59:27;14.30;99.90
6956;DHT22;50345;51.136;16.886;2023-04-24T15:01:53;14.30;99.90
6956;DHT22;50345;51.136;16.886;2023-04-24T15:04:23;14.20;99.90
6956;DHT22;50345;51.136;16.886;2023-04-24T15:06:51;14.20;99.90
6956;DHT22;50345;51.136;16.886;2023-04-24T15:09:16;14.20;99.90
6956;DHT22;50345;51.136;16.886;2023-04-24T15:11:42;14.30;99.90
6956;DHT22;50345;51.136;16.886;2023-04-24T15:14:07;14.30;99.90
6956;DHT22;50345;51.136;16.886;2023-04-24T15:16:33;14.30;99.90
6956;DHT22;50345;51.136;16.886;2023-04-24T15:18:58;14.30;99.90
6956;DHT22;50345;51.136;16.886;2023-04-24T15:21:24;14.30;99.90
6956;DHT22;50345;51.136;16.886;2023-04-24T15:23:51;14.30;99.90
6956;DHT22;50345;51.136;16.886;2023-04-24T15:26:17;14.40;99.90
6956;DHT22;50345;51.136;16.886;2023-04-24T15:28:42;14.40;99.90
6956;DHT22;50345;51.136;16.886;2023-04-24T15:31:08;14.40;99.90
6956;DHT22;50345;51.136;16.886;2023-04-24T15:33:33;14.50;99.90
6956;DHT22;50345;51.136;16.886;2023-04-24T15:35:59;14.60;99.90
6956;DHT22;50345;51.136;16.886;2023-04-24T15:38:25;14.60;99.90
6956;DHT22;50345;51.136;16.886;2023-04-24T15:40:50;14.60;99.90
6956;DHT22;50345;51.136;16.886;2023-04-24T15:43:16;14.70;99.90